sensor_id;sensor_type;location;lat;lon;timestamp;pressure;altitude;pressure_sealevel;temperature;humidity
21520;BME280;10921;53.614;9.882;2022-10-16T00:01:23;100707.13;;;15.96;88.73
21520;BME280;10921;53.614;9.882;2022-10-16T00:03:50;100708.81;;;15.97;88.26
21520;BME280;10921;53.614;9.882;2022-10-16T00:06:18;100711.31;;;15.99;88.13
21520;BME280;10921;53.614;9.882;2022-10-16T00:08:45;100703.78;;;15.94;87.57
21520;BME280;10921;53.614;9.882;2022-10-16T00:11:25;100710.47;;;15.98;88.28
21520;BME280;10921;53.614;9.882;2022-10-16T00:13:56;100714.84;;;15.99;87.61
21520;BME280;10921;53.614;9.882;2022-10-16T00:16:23;100708.63;;;15.99;86.69
21520;BME280;10921;53.614;9.882;2022-10-16T00:18:50;100702.09;;;15.93;86.25
21520;BME280;10921;53.614;9.882;2022-10-16T00:21:19;100716.72;;;15.99;86.22
21520;BME280;10921;53.614;9.882;2022-10-16T00:23:46;100711.50;;;15.97;85.43
21520;BME280;10921;53.614;9.882;2022-10-16T00:26:15;100723.41;;;16.03;85.29
21520;BME280;10921;53.614;9.882;2022-10-16T00:28:42;100719.03;;;16.02;84.60
21520;BME280;10921;53.614;9.882;2022-10-16T00:31:11;100723.19;;;16.04;84.25
21520;BME280;10921;53.614;9.882;2022-10-16T00:33:39;100717.00;;;16.04;83.87
21520;BME280;10921;53.614;9.882;2022-10-16T00:36:07;100715.97;;;16.05;83.61
21520;BME280;10921;53.614;9.882;2022-10-16T00:38:34;100739.84;;;16.08;82.84
21520;BME280;10921;53.614;9.882;2022-10-16T00:41:00;100735.13;;;16.10;82.67
21520;BME280;10921;53.614;9.882;2022-10-16T00:46:20;100727.88;;;16.10;82.28
21520;BME280;10921;53.614;9.882;2022-10-16T00:49:03;100732.25;;;16.11;81.76
21520;BME280;10921;53.614;9.882;2022-10-16T00:51:34;100737.28;;;16.14;80.86
21520;BME280;10921;53.614;9.882;2022-10-16T00:54:03;100721.34;;;16.05;80.39
21520;BME280;10921;53.614;9.882;2022-10-16T00:56:31;100738.34;;;16.28;80.10
21520;BME280;10921;53.614;9.882;2022-10-16T00:58:59;100730.91;;;16.07;79.83
21520;BME280;10921;53.614;9.882;2022-10-16T01:01:27;100733.44;;;16.09;79.43
21520;BME280;10921;53.614;9.882;2022-10-16T01:03:54;100740.50;;;16.10;79.42
21520;BME280;10921;53.614;9.882;2022-10-16T01:06:42;100740.50;;;16.10;79.92
21520;BME280;10921;53.614;9.882;2022-10-16T01:12:18;100753.53;;;15.98;79.14
21520;BME280;10921;53.614;9.882;2022-10-16T01:15:10;100762.28;;;16.00;79.35
21520;BME280;10921;53.614;9.882;2022-10-16T01:17:45;100756.75;;;15.94;79.69
21520;BME280;10921;53.614;9.882;2022-10-16T01:22:56;100756.81;;;15.86;79.42
21520;BME280;10921;53.614;9.882;2022-10-16T01:28:38;100756.38;;;15.74;79.20
21520;BME280;10921;53.614;9.882;2022-10-16T01:31:06;100757.59;;;15.71;79.03
21520;BME280;10921;53.614;9.882;2022-10-16T01:33:40;100755.06;;;15.70;79.40
21520;BME280;10921;53.614;9.882;2022-10-16T01:36:29;100755.25;;;15.68;79.63
21520;BME280;10921;53.614;9.882;2022-10-16T01:39:00;100758.44;;;15.64;79.22
21520;BME280;10921;53.614;9.882;2022-10-16T01:41:32;100741.53;;;15.55;79.32
21520;BME280;10921;53.614;9.882;2022-10-16T01:44:05;100750.75;;;15.53;79.60
21520;BME280;10921;53.614;9.882;2022-10-16T01:46:37;100757.81;;;15.54;79.42
21520;BME280;10921;53.614;9.882;2022-10-16T01:49:06;100755.47;;;15.51;79.40
21520;BME280;10921;53.614;9.882;2022-10-16T01:51:34;100749.94;;;15.44;79.43
21520;BME280;10921;53.614;9.882;2022-10-16T01:54:01;100758.22;;;15.42;79.21
21520;BME280;10921;53.614;9.882;2022-10-16T01:56:29;100751.50;;;15.38;79.35
21520;BME280;10921;53.614;9.882;2022-10-16T01:59:02;100757.72;;;15.39;79.51
21520;BME280;10921;53.614;9.882;2022-10-16T02:01:33;100756.56;;;15.33;79.74
21520;BME280;10921;53.614;9.882;2022-10-16T02:04:04;100754.38;;;15.29;79.75
21520;BME280;10921;53.614;9.882;2022-10-16T02:06:33;100756.44;;;15.27;79.69
21520;BME280;10921;53.614;9.882;2022-10-16T02:09:01;100768.81;;;15.28;79.49
21520;BME280;10921;53.614;9.882;2022-10-16T02:11:27;100753.09;;;15.17;79.78
21520;BME280;10921;53.614;9.882;2022-10-16T02:14:06;100771.03;;;15.24;80.41
21520;BME280;10921;53.614;9.882;2022-10-16T02:16:36;100760.47;;;15.23;79.50
21520;BME280;10921;53.614;9.882;2022-10-16T02:19:04;100752.91;;;15.18;79.66
21520;BME280;10921;53.614;9.882;2022-10-16T02:21:43;100758.13;;;15.20;79.54
21520;BME280;10921;53.614;9.882;2022-10-16T02:24:33;100762.47;;;15.21;79.84
21520;BME280;10921;53.614;9.882;2022-10-16T02:27:19;100768.19;;;15.18;79.35
21520;BME280;10921;53.614;9.882;2022-10-16T02:29:55;100769.25;;;15.08;79.36
21520;BME280;10921;53.614;9.882;2022-10-16T02:32:30;100759.34;;;15.01;79.31
21520;BME280;10921;53.614;9.882;2022-10-16T02:34:58;100772.09;;;15.07;79.06
21520;BME280;10921;53.614;9.882;2022-10-16T02:37:26;100769.59;;;15.05;78.92
21520;BME280;10921;53.614;9.882;2022-10-16T02:39:55;100751.31;;;14.93;79.03
21520;BME280;10921;53.614;9.882;2022-10-16T02:42:27;100755.34;;;14.97;79.17
21520;BME280;10921;53.614;9.882;2022-10-16T02:44:54;100770.44;;;14.98;79.23
21520;BME280;10921;53.614;9.882;2022-10-16T02:47:20;100775.16;;;14.96;79.00
21520;BME280;10921;53.614;9.882;2022-10-16T02:49:47;100773.81;;;14.92;79.23
21520;BME280;10921;53.614;9.882;2022-10-16T02:52:13;100760.22;;;14.85;79.31
21520;BME280;10921;53.614;9.882;2022-10-16T02:54:39;100767.28;;;14.86;79.19
21520;BME280;10921;53.614;9.882;2022-10-16T02:57:06;100779.03;;;14.85;79.26
21520;BME280;10921;53.614;9.882;2022-10-16T02:59:32;100769.47;;;14.83;79.26
21520;BME280;10921;53.614;9.882;2022-10-16T03:01:59;100769.81;;;14.80;79.33
21520;BME280;10921;53.614;9.882;2022-10-16T03:04:25;100771.34;;;14.74;79.78
21520;BME280;10921;53.614;9.882;2022-10-16T03:06:51;100773.34;;;14.72;79.16
21520;BME280;10921;53.614;9.882;2022-10-16T03:09:18;100766.00;;;14.66;79.63
21520;BME280;10921;53.614;9.882;2022-10-16T03:11:44;100773.38;;;14.64;79.85
21520;BME280;10921;53.614;9.882;2022-10-16T03:14:11;100773.03;;;14.59;80.12
21520;BME280;10921;53.614;9.882;2022-10-16T03:16:37;100748.22;;;14.49;80.43
21520;BME280;10921;53.614;9.882;2022-10-16T03:19:03;100760.25;;;14.53;80.45
21520;BME280;10921;53.614;9.882;2022-10-16T03:21:30;100736.28;;;14.43;80.42
21520;BME280;10921;53.614;9.882;2022-10-16T03:23:56;100761.63;;;14.49;80.82
21520;BME280;10921;53.614;9.882;2022-10-16T03:26:23;100755.53;;;14.38;80.77
21520;BME280;10921;53.614;9.882;2022-10-16T03:28:52;100753.22;;;14.35;80.84
21520;BME280;10921;53.614;9.882;2022-10-16T03:31:18;100778.56;;;14.41;81.42
21520;BME280;10921;53.614;9.882;2022-10-16T03:33:45;100773.66;;;14.36;81.49
21520;BME280;10921;53.614;9.882;2022-10-16T03:36:11;100753.22;;;14.27;81.62
21520;BME280;10921;53.614;9.882;2022-10-16T03:38:38;100763.63;;;14.30;81.85
21520;BME280;10921;53.614;9.882;2022-10-16T03:41:04;100766.97;;;14.32;81.98
21520;BME280;10921;53.614;9.882;2022-10-16T03:43:31;100767.47;;;14.28;82.18
21520;BME280;10921;53.614;9.882;2022-10-16T03:45:57;100764.44;;;14.31;82.04
21520;BME280;10921;53.614;9.882;2022-10-16T03:48:24;100770.50;;;14.33;82.11
21520;BME280;10921;53.614;9.882;2022-10-16T03:50:50;100768.97;;;14.30;81.82
21520;BME280;10921;53.614;9.882;2022-10-16T03:53:17;100776.72;;;14.41;81.63
21520;BME280;10921;53.614;9.882;2022-10-16T03:55:44;100773.19;;;14.41;81.73
21520;BME280;10921;53.614;9.882;2022-10-16T03:58:11;100786.44;;;14.42;81.66
21520;BME280;10921;53.614;9.882;2022-10-16T04:00:42;100781.09;;;14.42;81.79
21520;BME280;10921;53.614;9.882;2022-10-16T04:03:09;100788.59;;;14.39;81.39
21520;BME280;10921;53.614;9.882;2022-10-16T04:05:36;100787.75;;;14.38;81.37
21520;BME280;10921;53.614;9.882;2022-10-16T04:08:03;100799.50;;;14.37;81.39
21520;BME280;10921;53.614;9.882;2022-10-16T04:10:30;100799.19;;;14.40;81.30
21520;BME280;10921;53.614;9.882;2022-10-16T04:12:56;100812.97;;;14.46;81.18
21520;BME280;10921;53.614;9.882;2022-10-16T04:15:23;100817.50;;;14.45;81.19
21520;BME280;10921;53.614;9.882;2022-10-16T04:17:50;100815.66;;;14.46;81.13
21520;BME280;10921;53.614;9.882;2022-10-16T04:20:16;100823.53;;;14.47;80.92
21520;BME280;10921;53.614;9.882;2022-10-16T04:22:43;100814.47;;;14.40;80.84
21520;BME280;10921;53.614;9.882;2022-10-16T04:25:10;100811.78;;;14.40;80.43
21520;BME280;10921;53.614;9.882;2022-10-16T04:27:38;100821.03;;;14.46;80.76
21520;BME280;10921;53.614;9.882;2022-10-16T04:30:10;100805.41;;;14.41;80.85
21520;BME280;10921;53.614;9.882;2022-10-16T04:32:36;100819.34;;;14.45;80.57
21520;BME280;10921;53.614;9.882;2022-10-16T04:35:03;100805.72;;;14.38;80.54
21520;BME280;10921;53.614;9.882;2022-10-16T04:37:30;100825.03;;;14.41;80.71
21520;BME280;10921;53.614;9.882;2022-10-16T04:39:56;100834.63;;;14.44;80.49
21520;BME280;10921;53.614;9.882;2022-10-16T04:42:22;100836.78;;;14.40;80.66
21520;BME280;10921;53.614;9.882;2022-10-16T04:44:51;100841.81;;;14.35;80.83
21520;BME280;10921;53.614;9.882;2022-10-16T04:47:18;100848.81;;;14.36;80.92
21520;BME280;10921;53.614;9.882;2022-10-16T04:49:44;100842.97;;;14.33;81.10
21520;BME280;10921;53.614;9.882;2022-10-16T04:52:11;100838.75;;;14.30;81.31
21520;BME280;10921;53.614;9.882;2022-10-16T04:54:37;100830.34;;;14.25;81.12
21520;BME280;10921;53.614;9.882;2022-10-16T04:57:03;100841.63;;;14.29;81.33
21520;BME280;10921;53.614;9.882;2022-10-16T04:59:31;100834.72;;;14.26;81.65
21520;BME280;10921;53.614;9.882;2022-10-16T05:01:57;100837.56;;;14.25;81.73
21520;BME280;10921;53.614;9.882;2022-10-16T05:04:24;100842.09;;;14.24;81.73
21520;BME280;10921;53.614;9.882;2022-10-16T05:06:50;100833.72;;;14.19;81.97
21520;BME280;10921;53.614;9.882;2022-10-16T05:09:17;100838.09;;;14.20;82.33
21520;BME280;10921;53.614;9.882;2022-10-16T05:11:43;100861.22;;;14.21;82.64
21520;BME280;10921;53.614;9.882;2022-10-16T05:14:10;100848.78;;;14.12;82.61
21520;BME280;10921;53.614;9.882;2022-10-16T05:16:41;100857.19;;;14.17;82.89
21520;BME280;10921;53.614;9.882;2022-10-16T05:19:11;100863.25;;;14.19;82.81
21520;BME280;10921;53.614;9.882;2022-10-16T05:21:54;100857.69;;;14.21;83.51
21520;BME280;10921;53.614;9.882;2022-10-16T05:24:21;100858.53;;;14.21;83.24
21520;BME280;10921;53.614;9.882;2022-10-16T05:26:47;100845.78;;;14.15;83.40
21520;BME280;10921;53.614;9.882;2022-10-16T05:29:14;100857.69;;;14.21;83.23
21520;BME280;10921;53.614;9.882;2022-10-16T05:31:40;100860.56;;;14.19;83.27
21520;BME280;10921;53.614;9.882;2022-10-16T05:34:07;100874.97;;;14.18;83.64
21520;BME280;10921;53.614;9.882;2022-10-16T05:36:35;100877.16;;;14.15;83.71
21520;BME280;10921;53.614;9.882;2022-10-16T05:39:02;100887.41;;;14.19;84.07
21520;BME280;10921;53.614;9.882;2022-10-16T05:41:29;100874.31;;;14.16;83.93
21520;BME280;10921;53.614;9.882;2022-10-16T05:43:55;100882.69;;;14.21;84.09
21520;BME280;10921;53.614;9.882;2022-10-16T05:46:21;100871.47;;;14.18;84.42
21520;BME280;10921;53.614;9.882;2022-10-16T05:48:48;100865.41;;;14.16;84.52
21520;BME280;10921;53.614;9.882;2022-10-16T05:51:17;100868.94;;;14.16;84.40
21520;BME280;10921;53.614;9.882;2022-10-16T05:53:43;100859.03;;;14.17;84.67
21520;BME280;10921;53.614;9.882;2022-10-16T05:56:11;100866.94;;;14.18;84.32
21520;BME280;10921;53.614;9.882;2022-10-16T05:58:40;100883.03;;;14.26;84.52
21520;BME280;10921;53.614;9.882;2022-10-16T06:01:16;100882.03;;;14.27;85.10
21520;BME280;10921;53.614;9.882;2022-10-16T06:03:43;100873.47;;;14.24;84.70
21520;BME280;10921;53.614;9.882;2022-10-16T06:06:14;100873.50;;;14.32;85.03
21520;BME280;10921;53.614;9.882;2022-10-16T06:08:42;100865.41;;;14.24;84.46
21520;BME280;10921;53.614;9.882;2022-10-16T06:11:12;100893.44;;;14.37;84.35
21520;BME280;10921;53.614;9.882;2022-10-16T06:13:39;100879.38;;;14.35;83.92
21520;BME280;10921;53.614;9.882;2022-10-16T06:16:10;100864.75;;;14.30;83.86
21520;BME280;10921;53.614;9.882;2022-10-16T06:18:36;100889.75;;;14.38;83.75
21520;BME280;10921;53.614;9.882;2022-10-16T06:21:13;100889.63;;;14.40;84.29
21520;BME280;10921;53.614;9.882;2022-10-16T06:23:41;100885.75;;;14.34;83.93
21520;BME280;10921;53.614;9.882;2022-10-16T06:26:09;100882.72;;;14.37;84.35
21520;BME280;10921;53.614;9.882;2022-10-16T06:28:36;100884.22;;;14.32;84.58
21520;BME280;10921;53.614;9.882;2022-10-16T06:31:04;100884.56;;;14.29;84.56
21520;BME280;10921;53.614;9.882;2022-10-16T06:33:34;100886.25;;;14.38;84.59
21520;BME280;10921;53.614;9.882;2022-10-16T06:36:08;100889.94;;;14.37;85.12
21520;BME280;10921;53.614;9.882;2022-10-16T06:38:35;100890.28;;;14.34;85.03
21520;BME280;10921;53.614;9.882;2022-10-16T06:41:02;100904.69;;;14.33;85.45
21520;BME280;10921;53.614;9.882;2022-10-16T06:43:29;100925.91;;;14.44;85.63
21520;BME280;10921;53.614;9.882;2022-10-16T06:45:59;100928.78;;;14.51;85.61
21520;BME280;10921;53.614;9.882;2022-10-16T06:48:27;100913.50;;;14.51;85.73
21520;BME280;10921;53.614;9.882;2022-10-16T06:51:02;100922.41;;;14.60;86.21
21520;BME280;10921;53.614;9.882;2022-10-16T06:53:33;100918.53;;;14.62;85.72
21520;BME280;10921;53.614;9.882;2022-10-16T06:56:19;100922.75;;;14.73;85.78
21520;BME280;10921;53.614;9.882;2022-10-16T06:58:47;100932.84;;;14.79;85.63
21520;BME280;10921;53.614;9.882;2022-10-16T07:01:15;100930.00;;;14.81;85.45
21520;BME280;10921;53.614;9.882;2022-10-16T07:03:43;100928.31;;;14.88;85.42
21520;BME280;10921;53.614;9.882;2022-10-16T07:06:12;100933.84;;;15.02;85.08
21520;BME280;10921;53.614;9.882;2022-10-16T07:08:40;100939.53;;;15.16;84.73
21520;BME280;10921;53.614;9.882;2022-10-16T07:11:10;100934.19;;;15.24;84.32
21520;BME280;10921;53.614;9.882;2022-10-16T07:13:38;100949.13;;;15.34;84.11
21520;BME280;10921;53.614;9.882;2022-10-16T07:16:11;100944.56;;;15.43;83.74
21520;BME280;10921;53.614;9.882;2022-10-16T07:18:38;100937.00;;;15.46;83.13
21520;BME280;10921;53.614;9.882;2022-10-16T07:21:12;100960.53;;;15.61;82.76
21520;BME280;10921;53.614;9.882;2022-10-16T07:23:39;100947.75;;;15.63;82.19
21520;BME280;10921;53.614;9.882;2022-10-16T07:26:06;100943.88;;;15.65;81.88
21520;BME280;10921;53.614;9.882;2022-10-16T07:28:33;100964.72;;;15.71;81.83
21520;BME280;10921;53.614;9.882;2022-10-16T07:31:06;100968.38;;;15.78;82.27
21520;BME280;10921;53.614;9.882;2022-10-16T07:33:34;100977.97;;;15.81;82.26
21520;BME280;10921;53.614;9.882;2022-10-16T07:36:01;100970.25;;;15.78;82.20
21520;BME280;10921;53.614;9.882;2022-10-16T07:38:28;100964.47;;;15.89;82.13
21520;BME280;10921;53.614;9.882;2022-10-16T07:40:58;100978.44;;;15.93;81.99
21520;BME280;10921;53.614;9.882;2022-10-16T07:43:26;100981.47;;;15.98;81.62
21520;BME280;10921;53.614;9.882;2022-10-16T07:45:52;100978.91;;;16.04;81.22
21520;BME280;10921;53.614;9.882;2022-10-16T07:48:19;100996.53;;;16.15;81.11
21520;BME280;10921;53.614;9.882;2022-10-16T07:50:46;100978.53;;;16.15;80.75
21520;BME280;10921;53.614;9.882;2022-10-16T07:53:12;100976.69;;;16.16;80.52
21520;BME280;10921;53.614;9.882;2022-10-16T07:55:39;100995.47;;;16.32;80.31
21520;BME280;10921;53.614;9.882;2022-10-16T07:58:06;100983.88;;;16.24;80.16
21520;BME280;10921;53.614;9.882;2022-10-16T08:00:33;101005.69;;;16.37;79.72
21520;BME280;10921;53.614;9.882;2022-10-16T08:02:59;101005.53;;;16.38;79.34
21520;BME280;10921;53.614;9.882;2022-10-16T08:05:27;100991.28;;;16.22;79.64
21520;BME280;10921;53.614;9.882;2022-10-16T08:07:55;101005.69;;;16.37;79.43
21520;BME280;10921;53.614;9.882;2022-10-16T08:10:24;101020.53;;;16.33;79.59
21520;BME280;10921;53.614;9.882;2022-10-16T08:12:52;101008.44;;;16.29;79.73
21520;BME280;10921;53.614;9.882;2022-10-16T08:15:19;101022.84;;;16.36;79.76
21520;BME280;10921;53.614;9.882;2022-10-16T08:18:02;101022.34;;;16.40;80.28
21520;BME280;10921;53.614;9.882;2022-10-16T08:20:29;101016.47;;;16.37;80.04
21520;BME280;10921;53.614;9.882;2022-10-16T08:22:56;101008.03;;;16.40;80.23
21520;BME280;10921;53.614;9.882;2022-10-16T08:25:23;101023.34;;;16.47;80.10
21520;BME280;10921;53.614;9.882;2022-10-16T08:27:50;101023.13;;;16.57;79.98
21520;BME280;10921;53.614;9.882;2022-10-16T08:30:18;101026.47;;;16.59;79.06
21520;BME280;10921;53.614;9.882;2022-10-16T08:32:46;101021.44;;;16.64;79.00
21520;BME280;10921;53.614;9.882;2022-10-16T08:35:13;101012.47;;;16.72;78.43
21520;BME280;10921;53.614;9.882;2022-10-16T08:37:41;101025.53;;;16.83;78.25
21520;BME280;10921;53.614;9.882;2022-10-16T08:40:20;101028.66;;;16.95;78.58
21520;BME280;10921;53.614;9.882;2022-10-16T08:43:12;101027.41;;;17.05;77.93
21520;BME280;10921;53.614;9.882;2022-10-16T08:45:58;101017.81;;;17.03;77.28
21520;BME280;10921;53.614;9.882;2022-10-16T08:48:51;101014.16;;;17.18;76.93
21520;BME280;10921;53.614;9.882;2022-10-16T08:51:22;101028.63;;;17.26;76.51
21520;BME280;10921;53.614;9.882;2022-10-16T08:53:57;101035.25;;;17.38;76.51
21520;BME280;10921;53.614;9.882;2022-10-16T08:56:25;101035.34;;;17.44;75.84
21520;BME280;10921;53.614;9.882;2022-10-16T08:58:53;101047.50;;;17.63;75.10
21520;BME280;10921;53.614;9.882;2022-10-16T09:01:38;101052.44;;;17.82;74.42
21520;BME280;10921;53.614;9.882;2022-10-16T09:07:04;101058.41;;;18.07;71.59
21520;BME280;10921;53.614;9.882;2022-10-16T09:09:53;101063.63;;;18.23;72.12
21520;BME280;10921;53.614;9.882;2022-10-16T09:15:35;101075.38;;;18.45;71.53
21520;BME280;10921;53.614;9.882;2022-10-16T09:18:12;101068.28;;;18.44;70.62
21520;BME280;10921;53.614;9.882;2022-10-16T09:20:55;101082.28;;;18.63;69.29
21520;BME280;10921;53.614;9.882;2022-10-16T09:23:27;101090.28;;;18.71;68.83
21520;BME280;10921;53.614;9.882;2022-10-16T09:25:55;101094.53;;;18.80;68.67
21520;BME280;10921;53.614;9.882;2022-10-16T09:28:22;101094.81;;;18.85;67.47
21520;BME280;10921;53.614;9.882;2022-10-16T09:30:48;101090.53;;;18.90;67.29
21520;BME280;10921;53.614;9.882;2022-10-16T09:33:18;101086.50;;;19.01;66.69
21520;BME280;10921;53.614;9.882;2022-10-16T09:35:51;101082.44;;;19.12;66.60
21520;BME280;10921;53.614;9.882;2022-10-16T09:40:51;101075.19;;;19.33;65.28
21520;BME280;10921;53.614;9.882;2022-10-16T09:43:31;101090.38;;;19.49;64.08
21520;BME280;10921;53.614;9.882;2022-10-16T09:46:29;101082.44;;;19.69;63.83
21520;BME280;10921;53.614;9.882;2022-10-16T09:49:20;101086.50;;;19.86;63.67
21520;BME280;10921;53.614;9.882;2022-10-16T09:51:47;101084.16;;;20.05;62.54
21520;BME280;10921;53.614;9.882;2022-10-16T09:54:16;101104.75;;;20.27;62.09
21520;BME280;10921;53.614;9.882;2022-10-16T09:56:43;101105.25;;;20.37;61.20
21520;BME280;10921;53.614;9.882;2022-10-16T09:59:14;101107.63;;;20.53;60.67
21520;BME280;10921;53.614;9.882;2022-10-16T10:01:45;101108.97;;;20.70;60.15
21520;BME280;10921;53.614;9.882;2022-10-16T10:04:12;101127.38;;;20.82;58.94
21520;BME280;10921;53.614;9.882;2022-10-16T10:06:46;101119.09;;;20.96;59.25
21520;BME280;10921;53.614;9.882;2022-10-16T10:11:54;101122.50;;;21.12;57.94
21520;BME280;10921;53.614;9.882;2022-10-16T10:14:25;101115.69;;;21.22;58.44
21520;BME280;10921;53.614;9.882;2022-10-16T10:17:01;101108.78;;;21.26;57.37
21520;BME280;10921;53.614;9.882;2022-10-16T10:19:28;101121.94;;;21.29;57.24
21520;BME280;10921;53.614;9.882;2022-10-16T10:21:58;101116.16;;;21.59;56.38
21520;BME280;10921;53.614;9.882;2022-10-16T10:24:24;101127.44;;;21.49;56.52
21520;BME280;10921;53.614;9.882;2022-10-16T10:35:03;101115.34;;;21.78;56.75
21520;BME280;10921;53.614;9.882;2022-10-16T10:38:12;101137.28;;;21.90;55.82
21520;BME280;10921;53.614;9.882;2022-10-16T10:45:52;101141.63;;;21.58;55.27
21520;BME280;10921;53.614;9.882;2022-10-16T10:51:18;101147.94;;;21.65;55.16
21520;BME280;10921;53.614;9.882;2022-10-16T10:54:01;101151.69;;;21.64;55.23
21520;BME280;10921;53.614;9.882;2022-10-16T10:56:46;101141.25;;;21.74;54.47
21520;BME280;10921;53.614;9.882;2022-10-16T10:59:28;101146.69;;;21.74;54.17
21520;BME280;10921;53.614;9.882;2022-10-16T11:02:00;101143.78;;;21.82;53.52
21520;BME280;10921;53.614;9.882;2022-10-16T11:07:00;101151.09;;;21.95;52.59
21520;BME280;10921;53.614;9.882;2022-10-16T11:09:33;101166.56;;;22.01;52.29
21520;BME280;10921;53.614;9.882;2022-10-16T11:12:16;101162.22;;;22.13;51.71
21520;BME280;10921;53.614;9.882;2022-10-16T11:14:58;101169.09;;;22.22;52.27
21520;BME280;10921;53.614;9.882;2022-10-16T11:17:39;101178.91;;;22.43;52.37
21520;BME280;10921;53.614;9.882;2022-10-16T11:23:01;101166.31;;;22.68;51.73
21520;BME280;10921;53.614;9.882;2022-10-16T11:25:32;101179.47;;;22.78;50.40
21520;BME280;10921;53.614;9.882;2022-10-16T11:28:14;101175.44;;;23.00;51.18
21520;BME280;10921;53.614;9.882;2022-10-16T11:34:17;101186.53;;;22.99;49.80
21520;BME280;10921;53.614;9.882;2022-10-16T11:36:58;101178.66;;;22.77;49.57
21520;BME280;10921;53.614;9.882;2022-10-16T11:39:29;101197.25;;;22.87;49.54
21520;BME280;10921;53.614;9.882;2022-10-16T11:42:10;101201.88;;;22.73;49.48
21520;BME280;10921;53.614;9.882;2022-10-16T11:47:42;101192.03;;;22.72;49.76
21520;BME280;10921;53.614;9.882;2022-10-16T11:50:55;101202.03;;;22.92;48.99
21520;BME280;10921;53.614;9.882;2022-10-16T11:55:55;101197.84;;;22.96;48.38
21520;BME280;10921;53.614;9.882;2022-10-16T11:58:35;101201.34;;;23.16;47.65
21520;BME280;10921;53.614;9.882;2022-10-16T12:01:22;101199.69;;;23.08;47.19
21520;BME280;10921;53.614;9.882;2022-10-16T12:07:05;101227.94;;;23.21;45.91
21520;BME280;10921;53.614;9.882;2022-10-16T12:09:37;101210.56;;;23.15;45.93
21520;BME280;10921;53.614;9.882;2022-10-16T12:12:04;101214.13;;;23.15;45.89
21520;BME280;10921;53.614;9.882;2022-10-16T12:14:38;101236.53;;;23.18;45.22
21520;BME280;10921;53.614;9.882;2022-10-16T12:17:36;101232.75;;;23.19;46.57
21520;BME280;10921;53.614;9.882;2022-10-16T12:22:52;101245.75;;;23.17;45.20
21520;BME280;10921;53.614;9.882;2022-10-16T12:25:22;101249.09;;;23.19;44.84
21520;BME280;10921;53.614;9.882;2022-10-16T12:27:58;101241.31;;;23.22;44.93
21520;BME280;10921;53.614;9.882;2022-10-16T12:30:27;101260.19;;;23.17;44.79
21520;BME280;10921;53.614;9.882;2022-10-16T12:33:06;101245.09;;;23.21;44.88
21520;BME280;10921;53.614;9.882;2022-10-16T12:35:46;101253.69;;;23.18;45.32
21520;BME280;10921;53.614;9.882;2022-10-16T12:40:47;101251.06;;;22.85;45.61
21520;BME280;10921;53.614;9.882;2022-10-16T12:48:41;101271.56;;;22.15;46.35
21520;BME280;10921;53.614;9.882;2022-10-16T12:59:24;101295.63;;;21.70;48.56
21520;BME280;10921;53.614;9.882;2022-10-16T13:02:04;101289.44;;;21.90;48.88
21520;BME280;10921;53.614;9.882;2022-10-16T13:10:26;101289.53;;;22.23;48.16
21520;BME280;10921;53.614;9.882;2022-10-16T13:15:53;101303.97;;;22.50;47.20
21520;BME280;10921;53.614;9.882;2022-10-16T13:21:44;101304.63;;;22.85;48.24
21520;BME280;10921;53.614;9.882;2022-10-16T13:26:57;101325.28;;;23.25;46.41
21520;BME280;10921;53.614;9.882;2022-10-16T13:29:31;101319.41;;;23.35;46.22
21520;BME280;10921;53.614;9.882;2022-10-16T13:32:00;101327.13;;;23.44;43.70
21520;BME280;10921;53.614;9.882;2022-10-16T13:34:27;101323.13;;;23.60;43.63
21520;BME280;10921;53.614;9.882;2022-10-16T13:36:54;101324.59;;;23.56;43.74
21520;BME280;10921;53.614;9.882;2022-10-16T13:39:23;101340.94;;;23.63;43.83
21520;BME280;10921;53.614;9.882;2022-10-16T13:42:10;101328.56;;;23.67;43.66
21520;BME280;10921;53.614;9.882;2022-10-16T13:44:42;101339.47;;;23.60;44.07
21520;BME280;10921;53.614;9.882;2022-10-16T13:47:21;101337.78;;;23.66;44.23
21520;BME280;10921;53.614;9.882;2022-10-16T13:50:02;101349.72;;;23.65;44.04
21520;BME280;10921;53.614;9.882;2022-10-16T13:52:29;101360.63;;;23.58;43.53
21520;BME280;10921;53.614;9.882;2022-10-16T13:54:56;101359.59;;;23.59;42.83
21520;BME280;10921;53.614;9.882;2022-10-16T13:57:27;101343.72;;;23.30;42.16
21520;BME280;10921;53.614;9.882;2022-10-16T13:59:54;101366.72;;;23.47;42.55
21520;BME280;10921;53.614;9.882;2022-10-16T14:02:25;101351.63;;;23.38;42.89
21520;BME280;10921;53.614;9.882;2022-10-16T14:04:54;101366.31;;;23.43;42.96
21520;BME280;10921;53.614;9.882;2022-10-16T14:07:25;101369.06;;;23.37;43.66
21520;BME280;10921;53.614;9.882;2022-10-16T14:09:53;101374.28;;;23.32;43.47
21520;BME280;10921;53.614;9.882;2022-10-16T14:12:21;101380.16;;;23.29;43.66
21520;BME280;10921;53.614;9.882;2022-10-16T14:14:54;101398.16;;;23.23;44.03
21520;BME280;10921;53.614;9.882;2022-10-16T14:17:24;101394.44;;;23.04;44.56
21520;BME280;10921;53.614;9.882;2022-10-16T14:19:55;101384.81;;;22.89;44.27
21520;BME280;10921;53.614;9.882;2022-10-16T14:23:01;101393.81;;;22.89;44.69
21520;BME280;10921;53.614;9.882;2022-10-16T14:25:30;101382.44;;;22.66;46.14
21520;BME280;10921;53.614;9.882;2022-10-16T14:30:27;101409.06;;;22.84;45.39
21520;BME280;10921;53.614;9.882;2022-10-16T14:33:00;101422.22;;;22.60;45.16
21520;BME280;10921;53.614;9.882;2022-10-16T14:37:56;101417.78;;;22.53;46.00
21520;BME280;10921;53.614;9.882;2022-10-16T14:40:25;101415.47;;;22.50;46.01
21520;BME280;10921;53.614;9.882;2022-10-16T14:42:53;101412.13;;;22.41;44.79
21520;BME280;10921;53.614;9.882;2022-10-16T14:45:22;101415.47;;;22.50;45.53